sensor_id;sensor_type;location;lat;lon;timestamp;temperature;humidity
67748;HTU21D;54543;50.712;6.070;2023-08-31T00:02:14;12.61;92.47
67748;HTU21D;54543;50.712;6.070;2023-08-31T00:04:43;12.61;92.05
67748;HTU21D;54543;50.712;6.070;2023-08-31T00:07:11;12.58;91.81
67748;HTU21D;54543;50.712;6.070;2023-08-31T00:09:39;12.56;91.56
67748;HTU21D;54543;50.712;6.070;2023-08-31T00:12:05;12.56;91.11
67748;HTU21D;54543;50.712;6.070;2023-08-31T00:14:34;12.53;91.35
67748;HTU21D;54543;50.712;6.070;2023-08-31T00:17:01;12.50;91.93
67748;HTU21D;54543;50.712;6.070;2023-08-31T00:19:34;12.52;92.12
67748;HTU21D;54543;50.712;6.070;2023-08-31T00:22:04;12.49;91.83
67748;HTU21D;54543;50.712;6.070;2023-08-31T00:24:35;12.48;92.54
67748;HTU21D;54543;50.712;6.070;2023-08-31T00:27:03;12.48;91.96
67748;HTU21D;54543;50.712;6.070;2023-08-31T00:29:30;12.48;92.05
67748;HTU21D;54543;50.712;6.070;2023-08-31T00:31:56;12.46;91.72
67748;HTU21D;54543;50.712;6.070;2023-08-31T00:34:23;12.43;91.90
67748;HTU21D;54543;50.712;6.070;2023-08-31T00:36:51;12.40;91.82
67748;HTU21D;54543;50.712;6.070;2023-08-31T00:39:17;12.35;91.70
67748;HTU21D;54543;50.712;6.070;2023-08-31T00:41:48;12.28;91.67
67748;HTU21D;54543;50.712;6.070;2023-08-31T00:44:18;12.22;92.05
67748;HTU21D;54543;50.712;6.070;2023-08-31T00:46:45;12.16;91.97
67748;HTU21D;54543;50.712;6.070;2023-08-31T00:49:14;12.13;91.80
67748;HTU21D;54543;50.712;6.070;2023-08-31T00:51:43;12.10;91.73
67748;HTU21D;54543;50.712;6.070;2023-08-31T00:54:17;12.04;92.13
67748;HTU21D;54543;50.712;6.070;2023-08-31T00:56:53;12.00;92.35
67748;HTU21D;54543;50.712;6.070;2023-08-31T00:59:21;11.97;92.48
67748;HTU21D;54543;50.712;6.070;2023-08-31T01:01:56;11.94;92.23
67748;HTU21D;54543;50.712;6.070;2023-08-31T01:10:27;11.83;92.56
67748;HTU21D;54543;50.712;6.070;2023-08-31T01:13:09;11.76;93.16
67748;HTU21D;54543;50.712;6.070;2023-08-31T01:15:41;11.71;92.88
67748;HTU21D;54543;50.712;6.070;2023-08-31T01:18:16;11.68;93.04
67748;HTU21D;54543;50.712;6.070;2023-08-31T01:20:58;11.69;93.76
67748;HTU21D;54543;50.712;6.070;2023-08-31T01:23:51;11.66;93.25
67748;HTU21D;54543;50.712;6.070;2023-08-31T01:26:19;11.62;93.46
67748;HTU21D;54543;50.712;6.070;2023-08-31T01:28:46;11.59;93.10
67748;HTU21D;54543;50.712;6.070;2023-08-31T01:31:12;11.56;93.17
67748;HTU21D;54543;50.712;6.070;2023-08-31T01:33:41;11.54;93.16
67748;HTU21D;54543;50.712;6.070;2023-08-31T01:36:35;11.53;94.51
67748;HTU21D;54543;50.712;6.070;2023-08-31T01:39:29;11.57;95.07
67748;HTU21D;54543;50.712;6.070;2023-08-31T01:42:02;11.57;93.68
67748;HTU21D;54543;50.712;6.070;2023-08-31T01:44:34;11.53;93.53
67748;HTU21D;54543;50.712;6.070;2023-08-31T01:47:06;11.51;94.06
67748;HTU21D;54543;50.712;6.070;2023-08-31T01:49:41;11.51;95.40
67748;HTU21D;54543;50.712;6.070;2023-08-31T01:52:08;11.53;94.11
67748;HTU21D;54543;50.712;6.070;2023-08-31T01:54:34;11.49;93.71
67748;HTU21D;54543;50.712;6.070;2023-08-31T01:57:06;11.45;94.56
67748;HTU21D;54543;50.712;6.070;2023-08-31T01:59:34;11.43;94.16
67748;HTU21D;54543;50.712;6.070;2023-08-31T02:02:03;11.41;94.01
67748;HTU21D;54543;50.712;6.070;2023-08-31T02:04:32;11.39;95.07
67748;HTU21D;54543;50.712;6.070;2023-08-31T02:06:58;11.40;96.38
67748;HTU21D;54543;50.712;6.070;2023-08-31T02:09:29;11.45;94.63
67748;HTU21D;54543;50.712;6.070;2023-08-31T02:11:55;11.42;94.48
67748;HTU21D;54543;50.712;6.070;2023-08-31T02:14:24;11.39;94.75
67748;HTU21D;54543;50.712;6.070;2023-08-31T02:16:52;11.36;94.32
67748;HTU21D;54543;50.712;6.070;2023-08-31T02:19:18;11.31;94.88
67748;HTU21D;54543;50.712;6.070;2023-08-31T02:21:47;11.31;94.52
67748;HTU21D;54543;50.712;6.070;2023-08-31T02:24:16;11.28;95.04
67748;HTU21D;54543;50.712;6.070;2023-08-31T02:26:43;11.27;94.82
67748;HTU21D;54543;50.712;6.070;2023-08-31T02:29:12;11.28;94.53
67748;HTU21D;54543;50.712;6.070;2023-08-31T02:31:40;11.25;95.91
67748;HTU21D;54543;50.712;6.070;2023-08-31T02:34:10;11.31;96.26
67748;HTU21D;54543;50.712;6.070;2023-08-31T02:36:39;11.30;96.67
67748;HTU21D;54543;50.712;6.070;2023-08-31T02:39:07;11.32;95.69
67748;HTU21D;54543;50.712;6.070;2023-08-31T02:41:35;11.31;95.79
67748;HTU21D;54543;50.712;6.070;2023-08-31T02:44:02;11.32;95.48
67748;HTU21D;54543;50.712;6.070;2023-08-31T02:46:27;11.29;96.07
67748;HTU21D;54543;50.712;6.070;2023-08-31T02:48:53;11.31;95.36
67748;HTU21D;54543;50.712;6.070;2023-08-31T02:51:20;11.36;96.42
67748;HTU21D;54543;50.712;6.070;2023-08-31T02:53:45;11.34;95.84
67748;HTU21D;54543;50.712;6.070;2023-08-31T02:56:14;11.33;95.39
67748;HTU21D;54543;50.712;6.070;2023-08-31T02:58:43;11.32;95.69
67748;HTU21D;54543;50.712;6.070;2023-08-31T03:01:13;11.32;95.30
67748;HTU21D;54543;50.712;6.070;2023-08-31T03:03:43;11.30;95.26
67748;HTU21D;54543;50.712;6.070;2023-08-31T03:06:10;11.29;95.23
67748;HTU21D;54543;50.712;6.070;2023-08-31T03:08:37;11.27;95.49
67748;HTU21D;54543;50.712;6.070;2023-08-31T03:11:04;11.27;95.28
67748;HTU21D;54543;50.712;6.070;2023-08-31T03:13:30;11.25;95.08
67748;HTU21D;54543;50.712;6.070;2023-08-31T03:15:57;11.22;95.43
67748;HTU21D;54543;50.712;6.070;2023-08-31T03:18:23;11.19;95.52
67748;HTU21D;54543;50.712;6.070;2023-08-31T03:20:50;11.17;95.59
67748;HTU21D;54543;50.712;6.070;2023-08-31T03:23:16;11.15;95.56
67748;HTU21D;54543;50.712;6.070;2023-08-31T03:25:43;11.13;95.85
67748;HTU21D;54543;50.712;6.070;2023-08-31T03:28:12;11.15;96.87
67748;HTU21D;54543;50.712;6.070;2023-08-31T03:30:44;11.20;96.74
67748;HTU21D;54543;50.712;6.070;2023-08-31T03:33:13;11.22;96.00
67748;HTU21D;54543;50.712;6.070;2023-08-31T03:35:39;11.18;96.00
67748;HTU21D;54543;50.712;6.070;2023-08-31T03:38:07;11.16;96.09
67748;HTU21D;54543;50.712;6.070;2023-08-31T03:40:36;11.15;95.80
67748;HTU21D;54543;50.712;6.070;2023-08-31T03:43:03;11.12;95.58
67748;HTU21D;54543;50.712;6.070;2023-08-31T03:45:39;11.09;96.11
67748;HTU21D;54543;50.712;6.070;2023-08-31T03:48:10;11.08;96.40
67748;HTU21D;54543;50.712;6.070;2023-08-31T03:50:36;11.07;96.13
67748;HTU21D;54543;50.712;6.070;2023-08-31T03:53:02;11.05;95.91
67748;HTU21D;54543;50.712;6.070;2023-08-31T03:55:30;11.03;96.07
67748;HTU21D;54543;50.712;6.070;2023-08-31T03:57:56;11.04;96.46
67748;HTU21D;54543;50.712;6.070;2023-08-31T04:00:21;11.04;96.46
67748;HTU21D;54543;50.712;6.070;2023-08-31T04:02:47;11.04;96.30
67748;HTU21D;54543;50.712;6.070;2023-08-31T04:05:13;11.04;96.05
67748;HTU21D;54543;50.712;6.070;2023-08-31T04:07:40;11.04;96.52
67748;HTU21D;54543;50.712;6.070;2023-08-31T04:10:06;11.04;96.50
67748;HTU21D;54543;50.712;6.070;2023-08-31T04:12:33;11.04;96.81
67748;HTU21D;54543;50.712;6.070;2023-08-31T04:15:00;11.07;96.45
67748;HTU21D;54543;50.712;6.070;2023-08-31T04:17:26;11.05;96.11
67748;HTU21D;54543;50.712;6.070;2023-08-31T04:19:53;11.09;96.84
67748;HTU21D;54543;50.712;6.070;2023-08-31T04:22:19;11.07;96.29
67748;HTU21D;54543;50.712;6.070;2023-08-31T04:24:44;11.04;96.15
67748;HTU21D;54543;50.712;6.070;2023-08-31T04:27:12;11.04;96.23
67748;HTU21D;54543;50.712;6.070;2023-08-31T04:29:38;11.05;96.23
67748;HTU21D;54543;50.712;6.070;2023-08-31T04:32:04;11.03;96.16
67748;HTU21D;54543;50.712;6.070;2023-08-31T04:34:32;11.01;96.00
67748;HTU21D;54543;50.712;6.070;2023-08-31T04:37:01;11.01;95.98
67748;HTU21D;54543;50.712;6.070;2023-08-31T04:39:29;11.01;96.55
67748;HTU21D;54543;50.712;6.070;2023-08-31T04:41:54;11.01;96.44
67748;HTU21D;54543;50.712;6.070;2023-08-31T04:44:20;11.01;96.38
67748;HTU21D;54543;50.712;6.070;2023-08-31T04:46:46;11.01;97.07
67748;HTU21D;54543;50.712;6.070;2023-08-31T04:49:12;11.03;96.55
67748;HTU21D;54543;50.712;6.070;2023-08-31T04:51:44;11.03;96.47
67748;HTU21D;54543;50.712;6.070;2023-08-31T04:54:09;11.03;96.82
67748;HTU21D;54543;50.712;6.070;2023-08-31T04:56:36;11.08;97.50
67748;HTU21D;54543;50.712;6.070;2023-08-31T04:59:01;11.11;96.97
67748;HTU21D;54543;50.712;6.070;2023-08-31T05:01:29;11.11;96.70
67748;HTU21D;54543;50.712;6.070;2023-08-31T05:03:55;11.14;96.98
67748;HTU21D;54543;50.712;6.070;2023-08-31T05:06:20;11.16;97.10
67748;HTU21D;54543;50.712;6.070;2023-08-31T05:08:47;11.16;96.69
67748;HTU21D;54543;50.712;6.070;2023-08-31T05:11:13;11.16;96.81
67748;HTU21D;54543;50.712;6.070;2023-08-31T05:13:41;11.18;96.68
67748;HTU21D;54543;50.712;6.070;2023-08-31T05:16:10;11.19;96.65
67748;HTU21D;54543;50.712;6.070;2023-08-31T05:18:38;11.22;97.17
67748;HTU21D;54543;50.712;6.070;2023-08-31T05:21:06;11.28;97.35
67748;HTU21D;54543;50.712;6.070;2023-08-31T05:23:35;11.34;96.83
67748;HTU21D;54543;50.712;6.070;2023-08-31T05:26:01;11.36;96.87
67748;HTU21D;54543;50.712;6.070;2023-08-31T05:28:29;11.39;96.66
67748;HTU21D;54543;50.712;6.070;2023-08-31T05:30:57;11.42;96.71
67748;HTU21D;54543;50.712;6.070;2023-08-31T05:33:23;11.46;97.12
67748;HTU21D;54543;50.712;6.070;2023-08-31T05:35:51;11.54;96.94
67748;HTU21D;54543;50.712;6.070;2023-08-31T05:38:16;11.59;96.18
67748;HTU21D;54543;50.712;6.070;2023-08-31T05:40:42;11.60;95.75
67748;HTU21D;54543;50.712;6.070;2023-08-31T05:43:16;11.63;95.88
67748;HTU21D;54543;50.712;6.070;2023-08-31T05:45:42;11.66;95.81
67748;HTU21D;54543;50.712;6.070;2023-08-31T05:48:08;11.71;95.66
67748;HTU21D;54543;50.712;6.070;2023-08-31T05:50:34;11.75;95.22
67748;HTU21D;54543;50.712;6.070;2023-08-31T05:53:02;11.81;95.29
67748;HTU21D;54543;50.712;6.070;2023-08-31T05:55:27;11.85;94.80
67748;HTU21D;54543;50.712;6.070;2023-08-31T05:57:53;11.91;94.83
67748;HTU21D;54543;50.712;6.070;2023-08-31T06:00:19;11.96;94.81
67748;HTU21D;54543;50.712;6.070;2023-08-31T06:02:45;12.02;94.24
67748;HTU21D;54543;50.712;6.070;2023-08-31T06:05:11;12.10;94.55
67748;HTU21D;54543;50.712;6.070;2023-08-31T06:07:42;12.16;94.98
67748;HTU21D;54543;50.712;6.070;2023-08-31T06:10:08;12.27;94.71
67748;HTU21D;54543;50.712;6.070;2023-08-31T06:12:34;12.34;93.91
67748;HTU21D;54543;50.712;6.070;2023-08-31T06:15:00;12.41;93.37
67748;HTU21D;54543;50.712;6.070;2023-08-31T06:17:26;12.47;93.01
67748;HTU21D;54543;50.712;6.070;2023-08-31T06:19:51;12.56;93.04
67748;HTU21D;54543;50.712;6.070;2023-08-31T06:22:17;12.62;93.03
67748;HTU21D;54543;50.712;6.070;2023-08-31T06:24:43;12.70;92.66
67748;HTU21D;54543;50.712;6.070;2023-08-31T06:27:10;12.78;92.36
67748;HTU21D;54543;50.712;6.070;2023-08-31T06:29:37;12.88;92.51
67748;HTU21D;54543;50.712;6.070;2023-08-31T06:32:03;12.97;92.34
67748;HTU21D;54543;50.712;6.070;2023-08-31T06:34:29;13.05;91.92
67748;HTU21D;54543;50.712;6.070;2023-08-31T06:36:56;13.08;91.77
67748;HTU21D;54543;50.712;6.070;2023-08-31T06:39:24;13.11;91.82
67748;HTU21D;54543;50.712;6.070;2023-08-31T06:41:50;13.15;91.43
67748;HTU21D;54543;50.712;6.070;2023-08-31T06:44:15;13.24;92.21
67748;HTU21D;54543;50.712;6.070;2023-08-31T06:46:42;13.37;91.24
67748;HTU21D;54543;50.712;6.070;2023-08-31T06:49:08;13.36;91.08
67748;HTU21D;54543;50.712;6.070;2023-08-31T06:51:35;13.34;90.37
67748;HTU21D;54543;50.712;6.070;2023-08-31T06:54:01;13.32;90.39
67748;HTU21D;54543;50.712;6.070;2023-08-31T06:56:36;13.38;90.74
67748;HTU21D;54543;50.712;6.070;2023-08-31T06:59:02;13.45;90.41
67748;HTU21D;54543;50.712;6.070;2023-08-31T07:01:28;13.49;90.08
67748;HTU21D;54543;50.712;6.070;2023-08-31T07:03:55;13.59;89.71
67748;HTU21D;54543;50.712;6.070;2023-08-31T07:06:21;13.65;89.92
67748;HTU21D;54543;50.712;6.070;2023-08-31T07:08:46;13.79;89.73
67748;HTU21D;54543;50.712;6.070;2023-08-31T07:11:13;13.88;88.98
67748;HTU21D;54543;50.712;6.070;2023-08-31T07:13:39;13.85;88.97
67748;HTU21D;54543;50.712;6.070;2023-08-31T07:16:05;13.88;89.06
67748;HTU21D;54543;50.712;6.070;2023-08-31T07:18:31;13.91;88.90
67748;HTU21D;54543;50.712;6.070;2023-08-31T07:20:57;13.95;89.00
67748;HTU21D;54543;50.712;6.070;2023-08-31T07:23:23;14.09;89.30
67748;HTU21D;54543;50.712;6.070;2023-08-31T07:25:48;14.19;88.87
67748;HTU21D;54543;50.712;6.070;2023-08-31T07:28:14;14.24;87.03
67748;HTU21D;54543;50.712;6.070;2023-08-31T07:30:40;14.21;87.26
67748;HTU21D;54543;50.712;6.070;2023-08-31T07:33:06;14.18;87.58
67748;HTU21D;54543;50.712;6.070;2023-08-31T07:35:32;14.20;87.61
67748;HTU21D;54543;50.712;6.070;2023-08-31T07:37:57;14.30;87.88
67748;HTU21D;54543;50.712;6.070;2023-08-31T07:40:23;14.43;86.93
67748;HTU21D;54543;50.712;6.070;2023-08-31T07:42:49;14.59;86.35
67748;HTU21D;54543;50.712;6.070;2023-08-31T07:45:16;14.72;85.51
67748;HTU21D;54543;50.712;6.070;2023-08-31T07:47:42;14.78;85.67
67748;HTU21D;54543;50.712;6.070;2023-08-31T07:50:08;14.91;85.16
67748;HTU21D;54543;50.712;6.070;2023-08-31T07:52:34;15.01;84.89
67748;HTU21D;54543;50.712;6.070;2023-08-31T07:55:00;15.14;85.00
67748;HTU21D;54543;50.712;6.070;2023-08-31T07:57:25;15.26;84.10
67748;HTU21D;54543;50.712;6.070;2023-08-31T07:59:51;15.37;83.71
67748;HTU21D;54543;50.712;6.070;2023-08-31T08:02:17;15.51;83.97
67748;HTU21D;54543;50.712;6.070;2023-08-31T08:04:42;15.76;84.19
67748;HTU21D;54543;50.712;6.070;2023-08-31T08:07:10;15.99;82.96
67748;HTU21D;54543;50.712;6.070;2023-08-31T08:09:36;16.11;82.16
67748;HTU21D;54543;50.712;6.070;2023-08-31T08:12:01;16.20;82.05
67748;HTU21D;54543;50.712;6.070;2023-08-31T08:14:28;16.32;78.75
67748;HTU21D;54543;50.712;6.070;2023-08-31T08:16:54;16.42;80.46
67748;HTU21D;54543;50.712;6.070;2023-08-31T08:19:23;16.50;80.33
67748;HTU21D;54543;50.712;6.070;2023-08-31T08:21:50;16.43;80.66
67748;HTU21D;54543;50.712;6.070;2023-08-31T08:24:15;16.29;81.48
67748;HTU21D;54543;50.712;6.070;2023-08-31T08:26:41;16.22;81.45
67748;HTU21D;54543;50.712;6.070;2023-08-31T08:29:07;16.25;81.43
67748;HTU21D;54543;50.712;6.070;2023-08-31T08:31:32;16.37;81.77
67748;HTU21D;54543;50.712;6.070;2023-08-31T08:33:58;16.55;80.03
67748;HTU21D;54543;50.712;6.070;2023-08-31T08:36:23;16.57;79.74
67748;HTU21D;54543;50.712;6.070;2023-08-31T08:38:49;16.61;79.88
67748;HTU21D;54543;50.712;6.070;2023-08-31T08:41:15;16.73;79.90
67748;HTU21D;54543;50.712;6.070;2023-08-31T08:43:46;16.73;78.29
67748;HTU21D;54543;50.712;6.070;2023-08-31T08:46:13;16.67;79.49
67748;HTU21D;54543;50.712;6.070;2023-08-31T08:48:39;16.84;79.33
67748;HTU21D;54543;50.712;6.070;2023-08-31T08:51:05;16.87;78.78
67748;HTU21D;54543;50.712;6.070;2023-08-31T08:53:31;16.86;78.16
67748;HTU21D;54543;50.712;6.070;2023-08-31T08:55:56;16.73;78.73
67748;HTU21D;54543;50.712;6.070;2023-08-31T08:58:23;16.66;78.95
67748;HTU21D;54543;50.712;6.070;2023-08-31T09:00:49;16.63;79.27
67748;HTU21D;54543;50.712;6.070;2023-08-31T09:03:15;16.62;78.24
67748;HTU21D;54543;50.712;6.070;2023-08-31T09:05:40;16.63;78.59
67748;HTU21D;54543;50.712;6.070;2023-08-31T09:08:08;16.71;79.01
67748;HTU21D;54543;50.712;6.070;2023-08-31T09:10:45;16.82;78.18
67748;HTU21D;54543;50.712;6.070;2023-08-31T09:13:17;16.85;77.98
67748;HTU21D;54543;50.712;6.070;2023-08-31T09:15:47;16.98;79.21
67748;HTU21D;54543;50.712;6.070;2023-08-31T09:18:28;17.04;75.93
67748;HTU21D;54543;50.712;6.070;2023-08-31T09:20:55;16.95;77.76
67748;HTU21D;54543;50.712;6.070;2023-08-31T09:23:25;17.07;77.63
67748;HTU21D;54543;50.712;6.070;2023-08-31T09:25:55;17.21;77.78
67748;HTU21D;54543;50.712;6.070;2023-08-31T09:28:23;17.32;77.79
67748;HTU21D;54543;50.712;6.070;2023-08-31T09:30:50;17.38;77.17
67748;HTU21D;54543;50.712;6.070;2023-08-31T09:33:18;17.46;76.98
67748;HTU21D;54543;50.712;6.070;2023-08-31T09:35:56;17.56;75.19
67748;HTU21D;54543;50.712;6.070;2023-08-31T09:38:22;17.67;76.42
67748;HTU21D;54543;50.712;6.070;2023-08-31T09:40:48;17.84;75.89
67748;HTU21D;54543;50.712;6.070;2023-08-31T09:43:23;17.98;74.56
67748;HTU21D;54543;50.712;6.070;2023-08-31T09:45:50;18.02;76.08
67748;HTU21D;54543;50.712;6.070;2023-08-31T09:48:16;17.92;75.48
67748;HTU21D;54543;50.712;6.070;2023-08-31T09:50:44;17.74;75.37
67748;HTU21D;54543;50.712;6.070;2023-08-31T09:53:11;17.51;75.76
67748;HTU21D;54543;50.712;6.070;2023-08-31T09:55:39;17.32;76.30
67748;HTU21D;54543;50.712;6.070;2023-08-31T09:58:06;17.17;76.78
67748;HTU21D;54543;50.712;6.070;2023-08-31T10:00:35;17.01;76.99
67748;HTU21D;54543;50.712;6.070;2023-08-31T10:03:05;16.91;77.53
67748;HTU21D;54543;50.712;6.070;2023-08-31T10:05:31;16.95;78.24
67748;HTU21D;54543;50.712;6.070;2023-08-31T10:07:58;17.05;77.98
67748;HTU21D;54543;50.712;6.070;2023-08-31T10:10:24;17.10;78.13
67748;HTU21D;54543;50.712;6.070;2023-08-31T10:12:50;17.15;77.72
67748;HTU21D;54543;50.712;6.070;2023-08-31T10:15:17;17.18;77.47
67748;HTU21D;54543;50.712;6.070;2023-08-31T10:17:44;17.31;77.69
67748;HTU21D;54543;50.712;6.070;2023-08-31T10:20:12;17.66;75.41
67748;HTU21D;54543;50.712;6.070;2023-08-31T10:22:39;17.98;75.50
67748;HTU21D;54543;50.712;6.070;2023-08-31T10:25:06;18.29;74.92
67748;HTU21D;54543;50.712;6.070;2023-08-31T10:27:40;18.38;70.87
67748;HTU21D;54543;50.712;6.070;2023-08-31T10:38:32;18.33;69.03
67748;HTU21D;54543;50.712;6.070;2023-08-31T10:41:03;18.19;70.31
67748;HTU21D;54543;50.712;6.070;2023-08-31T10:43:57;17.89;69.42
67748;HTU21D;54543;50.712;6.070;2023-08-31T10:46:34;17.75;70.97
67748;HTU21D;54543;50.712;6.070;2023-08-31T10:51:43;17.53;73.38
67748;HTU21D;54543;50.712;6.070;2023-08-31T10:54:25;17.51;73.47
67748;HTU21D;54543;50.712;6.070;2023-08-31T10:59:21;17.54;73.39
67748;HTU21D;54543;50.712;6.070;2023-08-31T11:01:56;17.65;72.87
67748;HTU21D;54543;50.712;6.070;2023-08-31T11:04:26;17.76;72.75
67748;HTU21D;54543;50.712;6.070;2023-08-31T11:07:17;17.96;70.98
67748;HTU21D;54543;50.712;6.070;2023-08-31T11:09:45;18.21;71.80
67748;HTU21D;54543;50.712;6.070;2023-08-31T11:12:11;18.25;71.21
67748;HTU21D;54543;50.712;6.070;2023-08-31T11:14:37;18.28;70.30
67748;HTU21D;54543;50.712;6.070;2023-08-31T11:17:03;18.30;71.82
67748;HTU21D;54543;50.712;6.070;2023-08-31T11:19:31;18.35;70.76
67748;HTU21D;54543;50.712;6.070;2023-08-31T11:21:56;18.36;71.24
67748;HTU21D;54543;50.712;6.070;2023-08-31T11:24:22;18.42;70.80
67748;HTU21D;54543;50.712;6.070;2023-08-31T11:26:55;18.54;69.93
67748;HTU21D;54543;50.712;6.070;2023-08-31T11:29:21;18.53;69.31
67748;HTU21D;54543;50.712;6.070;2023-08-31T11:31:47;18.41;70.51
67748;HTU21D;54543;50.712;6.070;2023-08-31T11:34:16;18.27;69.49
67748;HTU21D;54543;50.712;6.070;2023-08-31T11:36:43;18.09;69.99
67748;HTU21D;54543;50.712;6.070;2023-08-31T11:39:09;17.99;68.36
67748;HTU21D;54543;50.712;6.070;2023-08-31T11:41:36;17.94;70.43
67748;HTU21D;54543;50.712;6.070;2023-08-31T11:44:09;18.12;69.87
67748;HTU21D;54543;50.712;6.070;2023-08-31T11:46:39;18.49;68.90
67748;HTU21D;54543;50.712;6.070;2023-08-31T11:49:06;18.68;68.36
67748;HTU21D;54543;50.712;6.070;2023-08-31T11:51:33;18.71;68.83
67748;HTU21D;54543;50.712;6.070;2023-08-31T11:54:03;18.76;66.91
67748;HTU21D;54543;50.712;6.070;2023-08-31T11:56:42;18.72;67.50
67748;HTU21D;54543;50.712;6.070;2023-08-31T11:59:11;18.76;67.10
67748;HTU21D;54543;50.712;6.070;2023-08-31T12:01:41;18.74;68.88
67748;HTU21D;54543;50.712;6.070;2023-08-31T12:04:19;18.78;66.96
67748;HTU21D;54543;50.712;6.070;2023-08-31T12:06:50;18.89;63.23
67748;HTU21D;54543;50.712;6.070;2023-08-31T12:09:17;18.81;66.33
67748;HTU21D;54543;50.712;6.070;2023-08-31T12:11:49;18.71;66.62
67748;HTU21D;54543;50.712;6.070;2023-08-31T12:14:25;18.63;65.40
67748;HTU21D;54543;50.712;6.070;2023-08-31T12:16:53;18.53;67.41
67748;HTU21D;54543;50.712;6.070;2023-08-31T12:19:18;18.38;67.81
67748;HTU21D;54543;50.712;6.070;2023-08-31T12:21:46;18.25;68.62
67748;HTU21D;54543;50.712;6.070;2023-08-31T12:24:12;18.09;68.39
67748;HTU21D;54543;50.712;6.070;2023-08-31T12:26:38;17.97;68.64
67748;HTU21D;54543;50.712;6.070;2023-08-31T12:29:04;17.94;68.61
67748;HTU21D;54543;50.712;6.070;2023-08-31T12:31:31;17.95;68.81
67748;HTU21D;54543;50.712;6.070;2023-08-31T12:33:57;18.04;69.37
67748;HTU21D;54543;50.712;6.070;2023-08-31T12:36:23;18.20;67.62
67748;HTU21D;54543;50.712;6.070;2023-08-31T12:38:49;18.27;67.94
67748;HTU21D;54543;50.712;6.070;2023-08-31T12:41:14;18.51;67.73
67748;HTU21D;54543;50.712;6.070;2023-08-31T12:43:40;18.80;66.62
67748;HTU21D;54543;50.712;6.070;2023-08-31T12:46:05;19.17;65.21
67748;HTU21D;54543;50.712;6.070;2023-08-31T12:48:32;19.38;64.16
67748;HTU21D;54543;50.712;6.070;2023-08-31T12:50:58;19.51;64.46
67748;HTU21D;54543;50.712;6.070;2023-08-31T12:53:24;19.68;62.25
67748;HTU21D;54543;50.712;6.070;2023-08-31T12:55:49;19.70;63.76
67748;HTU21D;54543;50.712;6.070;2023-08-31T12:58:15;19.60;60.28
67748;HTU21D;54543;50.712;6.070;2023-08-31T13:00:41;19.32;61.91
67748;HTU21D;54543;50.712;6.070;2023-08-31T13:03:08;19.12;61.98
67748;HTU21D;54543;50.712;6.070;2023-08-31T13:05:38;19.03;63.88
67748;HTU21D;54543;50.712;6.070;2023-08-31T13:08:04;19.02;64.69
67748;HTU21D;54543;50.712;6.070;2023-08-31T13:10:30;19.03;64.97
67748;HTU21D;54543;50.712;6.070;2023-08-31T13:12:56;19.02;64.56
67748;HTU21D;54543;50.712;6.070;2023-08-31T13:15:21;19.07;65.24
67748;HTU21D;54543;50.712;6.070;2023-08-31T13:17:47;19.20;65.51
67748;HTU21D;54543;50.712;6.070;2023-08-31T13:20:13;19.37;64.68
67748;HTU21D;54543;50.712;6.070;2023-08-31T13:22:38;19.74;64.27
67748;HTU21D;54543;50.712;6.070;2023-08-31T13:25:04;19.98;61.50
67748;HTU21D;54543;50.712;6.070;2023-08-31T13:27:30;19.96;61.97
67748;HTU21D;54543;50.712;6.070;2023-08-31T13:29:59;19.82;62.83
67748;HTU21D;54543;50.712;6.070;2023-08-31T13:32:24;19.74;61.21
67748;HTU21D;54543;50.712;6.070;2023-08-31T13:34:51;19.65;62.31
67748;HTU21D;54543;50.712;6.070;2023-08-31T13:37:17;19.62;63.63
67748;HTU21D;54543;50.712;6.070;2023-08-31T13:39:43;19.62;62.69
67748;HTU21D;54543;50.712;6.070;2023-08-31T13:42:08;19.61;61.71
67748;HTU21D;54543;50.712;6.070;2023-08-31T13:44:34;19.62;63.15
67748;HTU21D;54543;50.712;6.070;2023-08-31T13:47:00;19.60;62.60
67748;HTU21D;54543;50.712;6.070;2023-08-31T13:49:28;19.55;63.08
67748;HTU21D;54543;50.712;6.070;2023-08-31T13:51:54;19.47;63.28
67748;HTU21D;54543;50.712;6.070;2023-08-31T13:54:19;19.40;62.91
67748;HTU21D;54543;50.712;6.070;2023-08-31T13:56:45;19.33;63.35
67748;HTU21D;54543;50.712;6.070;2023-08-31T13:59:10;19.37;64.43
67748;HTU21D;54543;50.712;6.070;2023-08-31T14:01:36;19.45;63.73
67748;HTU21D;54543;50.712;6.070;2023-08-31T14:04:03;19.52;63.43
67748;HTU21D;54543;50.712;6.070;2023-08-31T14:06:29;19.60;63.36
67748;HTU21D;54543;50.712;6.070;2023-08-31T14:08:55;19.72;63.48
67748;HTU21D;54543;50.712;6.070;2023-08-31T14:11:20;19.87;62.90
67748;HTU21D;54543;50.712;6.070;2023-08-31T14:13:46;19.98;62.71
67748;HTU21D;54543;50.712;6.070;2023-08-31T14:16:12;20.04;61.46
67748;HTU21D;54543;50.712;6.070;2023-08-31T14:18:38;20.02;61.73
67748;HTU21D;54543;50.712;6.070;2023-08-31T14:21:03;20.03;60.65
67748;HTU21D;54543;50.712;6.070;2023-08-31T14:23:30;20.02;61.83
67748;HTU21D;54543;50.712;6.070;2023-08-31T14:26:01;20.06;59.61
67748;HTU21D;54543;50.712;6.070;2023-08-31T14:28:27;20.06;60.76
67748;HTU21D;54543;50.712;6.070;2023-08-31T14:30:52;20.14;61.73
67748;HTU21D;54543;50.712;6.070;2023-08-31T14:33:18;20.24;58.24
67748;HTU21D;54543;50.712;6.070;2023-08-31T14:35:43;20.26;60.09
67748;HTU21D;54543;50.712;6.070;2023-08-31T14:38:10;20.26;58.37
67748;HTU21D;54543;50.712;6.070;2023-08-31T14:40:38;20.20;59.70
67748;HTU21D;54543;50.712;6.070;2023-08-31T14:43:06;20.27;59.61
67748;HTU21D;54543;50.712;6.070;2023-08-31T14:45:32;20.27;59.34
67748;HTU21D;54543;50.712;6.070;2023-08-31T14:47:58;20.27;58.70
67748;HTU21D;54543;50.712;6.070;2023-08-31T14:50:23;20.22;59.02
67748;HTU21D;54543;50.712;6.070;2023-08-31T14:52:49;20.17;57.45
67748;HTU21D;54543;50.712;6.070;2023-08-31T14:55:14;20.06;58.64
67748;HTU21D;54543;50.712;6.070;2023-08-31T14:57:40;20.02;58.45
67748;HTU21D;54543;50.712;6.070;2023-08-31T15:00:08;19.92;58.15
67748;HTU21D;54543;50.712;6.070;2023-08-31T15:02:34;19.89;59.10
67748;HTU21D;54543;50.712;6.070;2023-08-31T15:05:00;19.86;59.81
67748;HTU21D;54543;50.712;6.070;2023-08-31T15:07:25;19.86;58.86
67748;HTU21D;54543;50.712;6.070;2023-08-31T15:09:52;19.97;59.11
67748;HTU21D;54543;50.712;6.070;2023-08-31T15:12:18;19.99;58.48
67748;HTU21D;54543;50.712;6.070;2023-08-31T15:14:43;19.98;58.02
67748;HTU21D;54543;50.712;6.070;2023-08-31T15:17:09;19.94;59.57
67748;HTU21D;54543;50.712;6.070;2023-08-31T15:19:35;19.96;58.63
67748;HTU21D;54543;50.712;6.070;2023-08-31T15:22:00;19.95;59.54
67748;HTU21D;54543;50.712;6.070;2023-08-31T15:24:26;19.90;59.97
67748;HTU21D;54543;50.712;6.070;2023-08-31T15:26:52;19.88;60.17
67748;HTU21D;54543;50.712;6.070;2023-08-31T15:29:17;19.87;60.74
67748;HTU21D;54543;50.712;6.070;2023-08-31T15:31:43;19.86;60.76
67748;HTU21D;54543;50.712;6.070;2023-08-31T15:34:12;19.85;60.40
67748;HTU21D;54543;50.712;6.070;2023-08-31T15:36:37;19.80;60.18
67748;HTU21D;54543;50.712;6.070;2023-08-31T15:39:03;19.75;60.53